X  Schließen Metar Luftfahrt Wetterdaten     LICJ Falcone–Borsellino Airport
Temperatur
23°C Temperatur
20°C Taupunkt
83% Feuchtigkeit



Wind
11 KM/H
7 MPH
3 M/S
6 KTS



220°
SW
Aktuelle Wetterlage

Klar Klar
Luftdruck 1017.92 (hPa) - 30.06 (inHg)
Sichtweite 6.2 (Meile) - 10 (km)
Flughafen
Flughafen Code LICJ

Position : Falcone–Borsellino Airport
Entfernung: 55 (km)

Metar:
LICJ 182120Z 22006KT CAVOK 23/20 Q1018

Zeit: 18-06-2021 23:20 CEST